createdAt,value
2022-10-11T00:00:18.085Z,503.45
2022-10-11T00:03:06.561Z,483.92
2022-10-11T00:05:54.785Z,476.00
2022-10-11T00:08:44.042Z,495.13
2022-10-11T00:11:32.210Z,489.67
2022-10-11T00:14:20.137Z,487.35
2022-10-11T00:17:08.589Z,501.15
2022-10-11T00:19:56.527Z,510.48
2022-10-11T00:22:44.896Z,510.25
2022-10-11T00:25:34.137Z,480.98
2022-10-11T00:28:22.075Z,498.52
2022-10-11T00:31:12.994Z,528.78
2022-10-11T00:34:00.918Z,491.02
2022-10-11T00:36:48.817Z,528.08
2022-10-11T00:39:36.840Z,489.77
2022-10-11T00:42:26.145Z,515.05
2022-10-11T00:45:59.549Z,504.80
2022-10-11T00:48:51.804Z,485.45
2022-10-11T00:51:46.311Z,488.80
2022-10-11T00:54:37.983Z,493.90
2022-10-11T00:57:30.893Z,493.77
2022-10-11T01:00:20.252Z,508.88
2022-10-11T01:03:08.208Z,506.25
2022-10-11T01:05:56.592Z,514.50
2022-10-11T01:08:45.281Z,495.85
2022-10-11T01:11:43.455Z,486.48
2022-10-11T01:14:55.175Z,522.88
2022-10-11T01:17:51.491Z,505.73
2022-10-11T01:20:51.221Z,507.85
2022-10-11T01:24:08.368Z,502.00
2022-10-11T01:27:30.354Z,486.10
2022-10-11T01:30:24.876Z,469.80
2022-10-11T01:33:25.026Z,483.05
2022-10-11T01:36:22.073Z,484.08
2022-10-11T01:39:15.549Z,477.65
2022-10-11T01:42:06.117Z,487.65
2022-10-11T01:44:56.102Z,485.83
2022-10-11T01:47:46.626Z,482.42
2022-10-11T01:50:40.227Z,522.17
2022-10-11T01:53:59.663Z,496.17
2022-10-11T01:57:02.615Z,496.58
2022-10-11T02:00:03.351Z,483.45
2022-10-11T02:03:14.149Z,471.38
2022-10-11T02:06:09.478Z,483.55
2022-10-11T02:09:08.067Z,493.95
2022-10-11T02:12:00.009Z,508.48
2022-10-11T02:14:51.748Z,470.48
2022-10-11T02:17:45.481Z,475.88
2022-10-11T02:20:35.592Z,481.13
2022-10-11T02:23:27.534Z,489.30
2022-10-11T02:26:15.813Z,498.85
2022-10-11T02:29:06.449Z,479.38
2022-10-11T02:31:56.617Z,487.40
2022-10-11T02:34:48.234Z,491.27
2022-10-11T02:37:44.359Z,493.08
2022-10-11T02:40:35.324Z,496.42
2022-10-11T02:43:30.824Z,486.95
2022-10-11T02:46:19.136Z,512.17
2022-10-11T02:49:09.340Z,493.00
2022-10-11T02:51:57.793Z,499.25
2022-10-11T02:54:47.124Z,504.95
2022-10-11T02:57:35.184Z,473.75
2022-10-11T03:00:23.144Z,494.92
2022-10-11T03:03:11.080Z,497.48
2022-10-11T03:05:59.735Z,484.10
2022-10-11T03:08:47.611Z,486.67
2022-10-11T03:11:36.869Z,472.70
2022-10-11T03:14:25.255Z,476.75
2022-10-11T03:17:34.984Z,470.30
2022-10-11T03:20:21.435Z,461.92
2022-10-11T03:23:09.465Z,491.73
2022-10-11T03:25:57.353Z,477.25
2022-10-11T03:28:46.653Z,482.17
2022-10-11T03:31:34.707Z,455.63
2022-10-11T03:34:22.604Z,467.67
2022-10-11T03:37:10.562Z,467.52
2022-10-11T03:39:58.458Z,452.05
2022-10-11T03:42:46.381Z,466.50
2022-10-11T03:45:35.650Z,466.75
2022-10-11T03:48:23.501Z,446.10
2022-10-11T03:51:13.034Z,439.80
2022-10-11T03:54:00.921Z,464.80
2022-10-11T03:56:48.800Z,473.33
2022-10-11T03:59:36.661Z,431.40
2022-10-11T04:02:25.983Z,445.08
2022-10-11T04:05:13.882Z,425.55
2022-10-11T04:08:01.802Z,436.40
2022-10-11T04:10:49.973Z,443.98
2022-10-11T04:13:37.898Z,431.67
2022-10-11T04:16:25.946Z,436.15
2022-10-11T04:19:15.212Z,442.60
2022-10-11T04:22:03.113Z,423.63
2022-10-11T04:24:51.042Z,433.95
2022-10-11T04:27:38.881Z,416.85
2022-10-11T04:30:26.792Z,424.55
2022-10-11T04:33:14.730Z,428.05
2022-10-11T04:36:04.611Z,402.88
2022-10-11T04:38:52.698Z,426.38
2022-10-11T04:41:40.665Z,406.67
2022-10-11T04:44:28.541Z,419.15
2022-10-11T04:47:16.736Z,421.42
2022-10-11T04:50:05.144Z,422.00
2022-10-11T04:52:54.381Z,410.40
2022-10-11T04:55:42.272Z,405.38
2022-10-11T04:58:31.419Z,411.95
2022-10-11T05:01:19.279Z,404.27
2022-10-11T05:04:07.157Z,404.05
2022-10-11T05:06:55.458Z,387.38
2022-10-11T05:09:44.694Z,403.90
2022-10-11T05:12:32.573Z,412.17
2022-10-11T05:15:20.463Z,386.23
2022-10-11T05:18:08.334Z,394.63
2022-10-11T05:21:01.607Z,373.63
2022-10-11T05:23:51.113Z,387.98
2022-10-11T05:26:40.412Z,381.60
2022-10-11T05:29:28.352Z,385.40
2022-10-11T05:32:16.276Z,388.53
2022-10-11T05:35:04.320Z,403.93
2022-10-11T05:37:52.236Z,369.70
2022-10-11T05:40:40.960Z,391.40
2022-10-11T05:43:30.555Z,391.10
2022-10-11T05:46:18.492Z,373.40
2022-10-11T05:49:06.394Z,392.45
2022-10-11T05:51:54.303Z,365.93
2022-10-11T05:54:42.174Z,369.37
2022-10-11T05:57:30.103Z,372.47
2022-10-11T06:00:19.594Z,372.23
2022-10-11T06:03:09.252Z,351.83
2022-10-11T06:05:57.472Z,353.73
2022-10-11T06:08:46.056Z,367.50
2022-10-11T06:11:34.804Z,351.97
2022-10-11T06:14:15.889Z,385.40
2022-10-11T06:16:44.839Z,391.03
2022-10-11T06:19:12.494Z,384.35
2022-10-11T06:21:40.143Z,386.47
2022-10-11T06:24:09.244Z,382.70
2022-10-11T06:26:36.881Z,390.30
2022-10-11T06:29:04.837Z,415.53
2022-10-11T06:31:32.820Z,378.77
2022-10-11T06:34:01.756Z,374.92
2022-10-11T06:36:29.821Z,369.93
2022-10-11T06:38:57.419Z,394.50
2022-10-11T06:41:27.559Z,379.70
2022-10-11T06:43:55.628Z,396.30
2022-10-11T06:46:25.720Z,370.10
2022-10-11T06:48:53.870Z,370.43
2022-10-11T06:51:23.856Z,379.67
2022-10-11T06:53:52.592Z,373.42
2022-10-11T06:56:20.560Z,372.67
2022-10-11T06:58:48.474Z,388.25
2022-10-11T07:01:18.965Z,388.80
2022-10-11T07:03:47.141Z,410.63
2022-10-11T07:06:17.871Z,391.00
2022-10-11T07:08:46.962Z,377.58
2022-10-11T07:11:17.022Z,396.10
2022-10-11T07:13:49.679Z,386.70
2022-10-11T07:16:17.933Z,365.58
2022-10-11T07:18:46.111Z,385.20
2022-10-11T07:21:16.842Z,366.25
2022-10-11T07:23:44.519Z,389.10
2022-10-11T07:26:13.742Z,386.63
2022-10-11T07:28:43.944Z,400.85
2022-10-11T07:31:15.506Z,392.92
2022-10-11T07:33:43.558Z,390.75
2022-10-11T07:36:12.740Z,381.65
2022-10-11T07:38:41.430Z,399.40
2022-10-11T07:41:10.261Z,360.92
2022-10-11T07:43:39.802Z,398.52
2022-10-11T07:46:08.527Z,378.05
2022-10-11T07:48:37.714Z,419.15
2022-10-11T07:51:07.271Z,379.17
2022-10-11T07:53:39.727Z,403.25
2022-10-11T07:56:08.735Z,377.55
2022-10-11T07:58:36.800Z,380.27
2022-10-11T08:01:06.305Z,379.48
2022-10-11T08:03:34.458Z,399.17
2022-10-11T08:06:03.269Z,403.23
2022-10-11T08:08:31.332Z,380.33
2022-10-11T08:10:59.351Z,388.35
2022-10-11T08:13:27.453Z,385.40
2022-10-11T08:15:55.190Z,382.70
2022-10-11T08:18:24.313Z,361.45
2022-10-11T08:20:52.212Z,378.45
2022-10-11T08:23:20.706Z,374.92
2022-10-11T08:25:48.775Z,397.92
2022-10-11T08:28:17.676Z,366.88
2022-10-11T08:30:49.877Z,392.02
2022-10-11T08:33:17.852Z,385.05
2022-10-11T08:35:47.341Z,359.60
2022-10-11T08:38:15.240Z,393.92
2022-10-11T08:40:47.637Z,394.88
2022-10-11T08:43:28.914Z,374.48
2022-10-11T08:46:00.957Z,380.75
2022-10-11T08:48:35.482Z,385.80
2022-10-11T08:51:09.973Z,360.42
2022-10-11T08:53:46.809Z,398.92
2022-10-11T08:56:15.953Z,379.92
2022-10-11T08:58:49.082Z,355.13
2022-10-11T09:01:20.885Z,364.02
2022-10-11T09:03:50.137Z,390.48
2022-10-11T09:06:43.696Z,373.70
2022-10-11T09:09:29.100Z,386.17
2022-10-11T09:12:11.478Z,362.08
2022-10-11T09:15:04.538Z,374.55
2022-10-11T09:17:45.849Z,418.05
2022-10-11T09:20:28.120Z,398.08
2022-10-11T09:23:02.416Z,421.75
2022-10-11T09:25:34.400Z,423.60
2022-10-11T09:28:13.189Z,426.27
2022-10-11T09:30:47.477Z,405.85
2022-10-11T09:33:20.724Z,423.17
2022-10-11T09:35:50.114Z,433.08
2022-10-11T09:38:38.250Z,428.15
2022-10-11T09:41:15.662Z,427.65
2022-10-11T09:43:48.424Z,433.30
2022-10-11T09:46:23.859Z,416.88
2022-10-11T09:48:54.430Z,421.33
2022-10-11T09:51:25.030Z,420.85
2022-10-11T09:53:59.373Z,407.95
2022-10-11T09:56:29.937Z,394.42
2022-10-11T09:59:25.967Z,426.02
2022-10-11T10:02:19.614Z,434.20
2022-10-11T10:05:00.952Z,415.90
2022-10-11T10:07:29.982Z,400.00
2022-10-11T10:09:59.695Z,412.50
2022-10-11T10:12:29.716Z,427.38
2022-10-11T10:15:06.033Z,437.65
2022-10-11T10:17:34.026Z,429.85
2022-10-11T10:20:05.309Z,442.02
2022-10-11T10:22:36.037Z,424.33
2022-10-11T10:25:09.239Z,452.13
2022-10-11T10:27:37.141Z,449.73
2022-10-11T10:30:22.933Z,471.67
2022-10-11T10:32:56.552Z,443.48
2022-10-11T10:35:38.323Z,456.63
2022-10-11T10:38:20.721Z,456.42
2022-10-11T10:40:53.971Z,458.92
2022-10-11T10:43:24.873Z,476.45
2022-10-11T10:46:22.814Z,471.58
2022-10-11T10:51:52.637Z,464.98
2022-10-11T10:54:32.989Z,470.42
2022-10-11T10:57:05.510Z,472.85
2022-10-11T10:59:45.513Z,460.17
2022-10-11T11:02:40.880Z,459.30
2022-10-11T11:05:18.737Z,456.98
2022-10-11T11:07:50.872Z,464.42
2022-10-11T11:10:22.651Z,470.23
2022-10-11T11:13:02.399Z,480.98
2022-10-11T11:15:38.286Z,473.77
2022-10-11T11:18:25.774Z,458.50
2022-10-11T11:21:10.092Z,460.58
2022-10-11T11:23:45.184Z,417.33
2022-10-11T11:26:23.470Z,445.80
2022-10-11T11:29:03.470Z,437.20
2022-10-11T11:31:55.919Z,434.58
2022-10-11T11:34:27.349Z,437.70
2022-10-11T11:36:59.041Z,466.10
2022-10-11T11:39:31.107Z,447.15
2022-10-11T11:42:05.074Z,460.88
2022-10-11T11:44:37.600Z,464.92
2022-10-11T11:47:11.998Z,442.45
2022-10-11T11:52:24.048Z,447.20
2022-10-11T11:55:03.814Z,459.10
2022-10-11T11:57:45.738Z,480.38
2022-10-11T12:00:18.817Z,457.50
2022-10-11T12:02:52.253Z,467.88
2022-10-11T12:05:22.269Z,459.15
2022-10-11T12:07:55.051Z,413.38
2022-10-11T12:10:34.173Z,432.88
2022-10-11T12:13:21.233Z,428.00
2022-10-11T12:16:10.792Z,419.80
2022-10-11T12:18:51.862Z,419.10
2022-10-11T12:21:25.790Z,441.02
2022-10-11T12:23:54.730Z,459.70
2022-10-11T12:26:44.243Z,435.80
2022-10-11T12:29:42.469Z,438.70
2022-10-11T12:32:50.958Z,439.02
2022-10-11T12:36:05.565Z,438.92
2022-10-11T12:38:39.896Z,432.75
2022-10-11T12:41:49.011Z,435.00
2022-10-11T12:44:23.403Z,423.35
2022-10-11T12:47:23.927Z,411.85
2022-10-11T12:50:03.589Z,432.27
2022-10-11T12:52:40.785Z,413.70
2022-10-11T12:55:34.161Z,422.70
2022-10-11T12:58:26.041Z,423.23
2022-10-11T13:01:22.786Z,391.60
2022-10-11T13:04:03.966Z,398.10
2022-10-11T13:06:34.793Z,401.83
2022-10-11T13:09:06.431Z,411.33
2022-10-11T13:11:40.078Z,384.20
2022-10-11T13:14:11.600Z,391.15
2022-10-11T13:16:56.664Z,415.00
2022-10-11T13:19:24.738Z,397.95
2022-10-11T13:22:17.212Z,405.02
2022-10-11T13:24:44.883Z,398.15
2022-10-11T13:27:19.644Z,417.67
2022-10-11T13:29:48.751Z,401.60
2022-10-11T13:32:20.581Z,402.15
2022-10-11T13:34:50.950Z,397.42
2022-10-11T13:37:22.200Z,389.45
2022-10-11T13:39:52.907Z,394.33
2022-10-11T13:42:26.421Z,401.25
2022-10-11T13:44:54.150Z,396.52
2022-10-11T13:47:26.906Z,414.05
2022-10-11T13:50:04.701Z,390.70
2022-10-11T13:52:33.383Z,414.05
2022-10-11T13:55:22.808Z,396.85
2022-10-11T13:57:52.749Z,402.55
2022-10-11T14:00:30.044Z,385.13
2022-10-11T14:03:01.596Z,380.05
2022-10-11T14:05:35.310Z,401.63
2022-10-11T14:08:06.258Z,399.92
2022-10-11T14:10:34.935Z,399.65
2022-10-11T14:13:23.697Z,382.25
2022-10-11T14:16:29.331Z,395.98
2022-10-11T14:19:10.303Z,385.70
2022-10-11T14:21:51.159Z,402.88
2022-10-11T14:24:19.565Z,403.60
2022-10-11T14:26:49.929Z,392.58
2022-10-11T14:29:24.665Z,388.33
2022-10-11T14:31:56.233Z,387.60
2022-10-11T14:34:26.579Z,390.65
2022-10-11T14:36:54.595Z,396.17
2022-10-11T14:39:24.395Z,407.23
2022-10-11T14:41:53.047Z,380.83
2022-10-11T14:44:23.529Z,409.90
2022-10-11T14:46:54.551Z,402.50
2022-10-11T14:49:24.960Z,405.27
2022-10-11T14:51:54.762Z,393.05
2022-10-11T14:54:24.888Z,412.85
2022-10-11T14:56:54.633Z,416.20
2022-10-11T14:59:26.605Z,408.73
2022-10-11T15:01:54.694Z,417.80
2022-10-11T15:04:24.571Z,400.95
2022-10-11T15:06:53.500Z,412.83
2022-10-11T15:09:21.550Z,412.17
2022-10-11T15:11:50.061Z,436.48
2022-10-11T15:14:18.024Z,427.10
2022-10-11T15:16:47.149Z,430.25
2022-10-11T15:19:16.589Z,416.50
2022-10-11T15:21:45.100Z,442.75
2022-10-11T15:24:13.190Z,442.30
2022-10-11T15:26:41.175Z,424.83
2022-10-11T15:29:11.741Z,442.13
2022-10-11T15:31:39.426Z,436.35
2022-10-11T15:34:08.415Z,460.52
2022-10-11T15:36:36.050Z,421.88
2022-10-11T15:39:03.967Z,456.23
2022-10-11T15:41:31.574Z,410.63
2022-10-11T15:43:59.163Z,430.30
2022-10-11T15:46:26.781Z,436.42
2022-10-11T15:48:54.528Z,435.13
2022-10-11T15:51:23.477Z,432.17
2022-10-11T15:53:51.041Z,437.40
2022-10-11T15:56:19.585Z,434.20
2022-10-11T15:58:47.652Z,447.05
2022-10-11T16:01:18.655Z,432.98
2022-10-11T16:03:47.380Z,449.95
2022-10-11T16:06:15.524Z,446.48
2022-10-11T16:08:44.789Z,437.25
2022-10-11T16:11:13.965Z,450.40
2022-10-11T16:13:41.982Z,464.75
2022-10-11T16:16:11.937Z,443.10
2022-10-11T16:18:39.723Z,452.40
2022-10-11T16:21:10.130Z,462.20
2022-10-11T16:23:38.247Z,438.60
2022-10-11T16:26:09.852Z,465.73
2022-10-11T16:28:38.673Z,434.27
2022-10-11T16:31:10.664Z,428.52
2022-10-11T16:33:45.415Z,444.10
2022-10-11T16:36:31.711Z,428.98
2022-10-11T16:39:00.097Z,427.65
2022-10-11T16:41:29.006Z,434.63
2022-10-11T16:43:57.142Z,416.58
2022-10-11T16:46:25.101Z,432.60
2022-10-11T16:48:55.277Z,428.30
2022-10-11T16:51:23.978Z,422.38
2022-10-11T16:53:52.134Z,428.83
2022-10-11T16:56:22.400Z,413.13
2022-10-11T16:58:52.297Z,405.00
2022-10-11T17:01:20.140Z,395.75
2022-10-11T17:03:49.431Z,396.70
2022-10-11T17:06:17.171Z,396.85
2022-10-11T17:08:44.782Z,377.20
2022-10-11T17:11:12.676Z,383.58
2022-10-11T17:13:40.322Z,382.15
2022-10-11T17:16:09.696Z,392.27
2022-10-11T17:18:37.704Z,378.40
2022-10-11T17:21:08.411Z,376.55
2022-10-11T17:23:36.853Z,371.23
2022-10-11T17:26:10.994Z,346.15
2022-10-11T17:28:39.282Z,366.33
2022-10-11T17:31:07.493Z,378.23
2022-10-11T17:33:36.827Z,373.60
2022-10-11T17:36:14.268Z,366.80
2022-10-11T17:38:42.002Z,350.25
2022-10-11T17:41:09.786Z,372.73
2022-10-11T17:43:38.366Z,366.33
2022-10-11T17:46:07.282Z,363.70
2022-10-11T17:48:39.120Z,350.27
2022-10-11T17:51:09.126Z,347.30
2022-10-11T17:53:38.017Z,360.88
2022-10-11T17:56:07.629Z,360.13
2022-10-11T17:58:35.773Z,350.65
2022-10-11T18:01:06.162Z,362.63
2022-10-11T18:03:34.244Z,356.85
2022-10-11T18:06:05.539Z,355.75
2022-10-11T18:08:39.769Z,353.95
2022-10-11T18:11:11.566Z,336.85
2022-10-11T18:13:42.364Z,323.95
2022-10-11T18:16:11.134Z,350.55
2022-10-11T18:18:39.610Z,350.15
2022-10-11T18:21:08.745Z,339.73
2022-10-11T18:23:38.231Z,363.45
2022-10-11T18:26:10.855Z,331.45
2022-10-11T18:28:38.626Z,332.20
2022-10-11T18:31:12.627Z,346.83
2022-10-11T18:33:41.938Z,352.33
2022-10-11T18:36:13.488Z,340.63
2022-10-11T18:38:46.142Z,328.20
2022-10-11T18:41:16.446Z,327.02
2022-10-11T18:43:48.752Z,328.45
2022-10-11T18:46:16.563Z,319.52
2022-10-11T18:48:46.296Z,320.45
2022-10-11T18:51:18.289Z,324.05
2022-10-11T18:53:46.695Z,334.33
2022-10-11T18:56:16.152Z,312.08
2022-10-11T18:58:45.029Z,322.55
2022-10-11T19:01:16.386Z,346.30
2022-10-11T19:03:44.657Z,318.00
2022-10-11T19:06:17.718Z,333.95
2022-10-11T19:08:45.651Z,337.92
2022-10-11T19:11:13.969Z,330.95
2022-10-11T19:13:41.605Z,334.63
2022-10-11T19:16:12.031Z,359.73
2022-10-11T19:18:44.033Z,330.70
2022-10-11T19:21:14.418Z,343.00
2022-10-11T19:23:45.079Z,323.15
2022-10-11T19:26:14.794Z,302.77
2022-10-11T19:28:43.240Z,325.52
2022-10-11T19:31:14.291Z,319.67
2022-10-11T19:33:41.883Z,305.85
2022-10-11T19:36:12.765Z,332.02
2022-10-11T19:38:40.945Z,306.10
2022-10-11T19:41:09.970Z,328.02
2022-10-11T19:43:37.645Z,318.60
2022-10-11T19:46:07.081Z,332.80
2022-10-11T19:48:37.595Z,329.30
2022-10-11T19:51:07.975Z,330.30
2022-10-11T19:53:36.330Z,317.80
2022-10-11T19:56:05.284Z,321.17
2022-10-11T19:58:34.373Z,312.75
2022-10-11T20:01:03.836Z,334.15
2022-10-11T20:03:53.845Z,322.27
2022-10-11T20:06:42.754Z,313.40
2022-10-11T20:09:31.190Z,309.85
2022-10-11T20:12:19.289Z,298.90
2022-10-11T20:15:09.431Z,303.25
2022-10-11T20:17:57.651Z,288.42
2022-10-11T20:20:52.796Z,314.27
2022-10-11T20:26:35.435Z,283.50
2022-10-11T20:29:25.149Z,303.02
2022-10-11T20:32:14.367Z,299.27
2022-10-11T20:35:03.284Z,271.93
2022-10-11T20:37:53.501Z,290.43
2022-10-11T20:40:41.514Z,278.23
2022-10-11T20:43:29.386Z,308.60
2022-10-11T20:46:18.992Z,280.80
2022-10-11T20:49:09.698Z,273.43
2022-10-11T20:51:57.623Z,288.57
2022-10-11T20:54:45.609Z,294.48
2022-10-11T20:57:33.730Z,285.23
2022-10-11T21:00:22.991Z,283.07
2022-10-11T21:03:11.347Z,295.37
2022-10-11T21:06:00.989Z,288.27
2022-10-11T21:08:48.963Z,279.97
2022-10-11T21:11:36.869Z,289.53
2022-10-11T21:14:24.801Z,275.03
2022-10-11T21:17:12.705Z,274.03
2022-10-11T21:20:03.478Z,269.67
2022-10-11T21:22:52.785Z,269.27
2022-10-11T21:25:41.255Z,259.07
2022-10-11T21:28:29.563Z,271.27
2022-10-11T21:31:19.704Z,279.83
2022-10-11T21:34:07.753Z,278.70
2022-10-11T21:36:55.692Z,281.25
2022-10-11T21:39:45.075Z,292.40
2022-10-11T21:42:33.026Z,267.00
2022-10-11T21:45:20.921Z,277.07
2022-10-11T21:48:08.954Z,262.30
2022-10-11T21:50:56.903Z,270.73
2022-10-11T21:53:44.828Z,282.90
2022-10-11T21:56:34.093Z,299.70
2022-10-11T21:59:21.985Z,287.52
2022-10-11T22:02:09.983Z,301.40
2022-10-11T22:04:57.901Z,286.40
2022-10-11T22:07:46.383Z,308.13
2022-10-11T22:10:35.037Z,298.45
2022-10-11T22:13:24.772Z,294.15
2022-10-11T22:16:14.447Z,313.02
2022-10-11T22:19:02.399Z,306.85
2022-10-11T22:21:50.377Z,328.88
2022-10-11T22:24:38.275Z,325.17
2022-10-11T22:27:26.265Z,316.52
2022-10-11T22:30:15.518Z,310.85
2022-10-11T22:33:03.643Z,309.73
2022-10-11T22:35:54.711Z,316.55
2022-10-11T22:38:43.732Z,311.02
2022-10-11T22:41:31.596Z,317.23
2022-10-11T22:44:19.479Z,298.95
2022-10-11T22:47:08.723Z,316.38
2022-10-11T22:49:56.621Z,305.77
2022-10-11T22:52:44.508Z,297.97
2022-10-11T22:55:32.511Z,291.83
2022-10-11T22:58:20.431Z,302.60
2022-10-11T23:01:09.290Z,279.98
2022-10-11T23:03:58.771Z,284.70
2022-10-11T23:06:46.739Z,274.52
2022-10-11T23:09:34.676Z,279.53
2022-10-11T23:12:22.592Z,284.40
2022-10-11T23:15:11.445Z,294.37
2022-10-11T23:17:59.343Z,277.20
2022-10-11T23:20:48.588Z,291.45
2022-10-11T23:23:36.968Z,277.60
2022-10-11T23:26:24.870Z,281.13
2022-10-11T23:29:12.745Z,265.60
2022-10-11T23:32:00.662Z,275.30
2022-10-11T23:34:48.520Z,272.90
2022-10-11T23:37:38.188Z,287.43
2022-10-11T23:40:26.384Z,272.17
2022-10-11T23:43:14.251Z,267.10
2022-10-11T23:46:02.169Z,264.93
2022-10-11T23:48:50.101Z,259.30
2022-10-11T23:51:38.260Z,276.77
2022-10-11T23:54:27.494Z,269.17
2022-10-11T23:57:15.410Z,277.83
